sensor_id;sensor_type;location;lat;lon;timestamp;temperature;humidity
14529;DHT22;7351;51.194;4.098;2023-04-03T00:00:59;16.00;99.90
14529;DHT22;7351;51.194;4.098;2023-04-03T00:03:26;16.00;99.90
14529;DHT22;7351;51.194;4.098;2023-04-03T00:05:53;16.00;99.90
14529;DHT22;7351;51.194;4.098;2023-04-03T00:08:22;16.00;99.90
14529;DHT22;7351;51.194;4.098;2023-04-03T00:10:49;16.00;99.90
14529;DHT22;7351;51.194;4.098;2023-04-03T00:13:16;15.90;99.90
14529;DHT22;7351;51.194;4.098;2023-04-03T00:15:43;16.00;99.90
14529;DHT22;7351;51.194;4.098;2023-04-03T00:18:10;16.00;99.90
14529;DHT22;7351;51.194;4.098;2023-04-03T00:20:37;16.00;99.90
14529;DHT22;7351;51.194;4.098;2023-04-03T00:23:04;16.00;99.90
14529;DHT22;7351;51.194;4.098;2023-04-03T00:25:33;15.90;99.90
14529;DHT22;7351;51.194;4.098;2023-04-03T00:28:01;15.90;99.90
14529;DHT22;7351;51.194;4.098;2023-04-03T00:30:27;15.90;99.90
14529;DHT22;7351;51.194;4.098;2023-04-03T00:32:54;15.90;99.90
14529;DHT22;7351;51.194;4.098;2023-04-03T00:35:22;15.90;99.90
14529;DHT22;7351;51.194;4.098;2023-04-03T00:37:52;15.90;99.90
14529;DHT22;7351;51.194;4.098;2023-04-03T00:40:21;15.90;99.90
14529;DHT22;7351;51.194;4.098;2023-04-03T00:42:52;15.90;99.90
14529;DHT22;7351;51.194;4.098;2023-04-03T00:45:32;15.90;99.90
14529;DHT22;7351;51.194;4.098;2023-04-03T00:48:00;15.90;99.90
14529;DHT22;7351;51.194;4.098;2023-04-03T00:50:28;15.80;99.90
14529;DHT22;7351;51.194;4.098;2023-04-03T00:52:56;15.80;99.90
14529;DHT22;7351;51.194;4.098;2023-04-03T00:55:24;15.80;99.90
14529;DHT22;7351;51.194;4.098;2023-04-03T00:57:53;15.80;99.90
14529;DHT22;7351;51.194;4.098;2023-04-03T01:00:22;15.80;99.90
14529;DHT22;7351;51.194;4.098;2023-04-03T01:02:50;15.80;99.90
14529;DHT22;7351;51.194;4.098;2023-04-03T01:05:19;15.80;99.90
14529;DHT22;7351;51.194;4.098;2023-04-03T01:07:47;15.80;99.90
14529;DHT22;7351;51.194;4.098;2023-04-03T01:10:17;15.80;99.90
14529;DHT22;7351;51.194;4.098;2023-04-03T01:12:47;15.80;99.90
14529;DHT22;7351;51.194;4.098;2023-04-03T01:15:18;15.80;99.90
14529;DHT22;7351;51.194;4.098;2023-04-03T01:17:47;15.80;99.90
14529;DHT22;7351;51.194;4.098;2023-04-03T01:20:36;15.80;99.90
14529;DHT22;7351;51.194;4.098;2023-04-03T01:23:18;15.80;99.90
14529;DHT22;7351;51.194;4.098;2023-04-03T01:25:51;15.80;99.90
14529;DHT22;7351;51.194;4.098;2023-04-03T01:28:20;15.80;99.90
14529;DHT22;7351;51.194;4.098;2023-04-03T01:30:53;15.80;99.90
14529;DHT22;7351;51.194;4.098;2023-04-03T01:33:24;15.70;99.90
14529;DHT22;7351;51.194;4.098;2023-04-03T01:35:51;15.70;99.90
14529;DHT22;7351;51.194;4.098;2023-04-03T01:38:18;15.80;99.90
14529;DHT22;7351;51.194;4.098;2023-04-03T01:40:46;15.70;99.90
14529;DHT22;7351;51.194;4.098;2023-04-03T01:43:12;15.70;99.90
14529;DHT22;7351;51.194;4.098;2023-04-03T01:45:39;15.80;99.90
14529;DHT22;7351;51.194;4.098;2023-04-03T01:48:06;15.70;99.90
14529;DHT22;7351;51.194;4.098;2023-04-03T01:50:35;15.70;99.90
14529;DHT22;7351;51.194;4.098;2023-04-03T01:53:02;15.70;99.90
14529;DHT22;7351;51.194;4.098;2023-04-03T01:55:29;15.70;99.90
14529;DHT22;7351;51.194;4.098;2023-04-03T01:57:56;15.70;99.90
14529;DHT22;7351;51.194;4.098;2023-04-03T02:00:23;15.70;99.90
14529;DHT22;7351;51.194;4.098;2023-04-03T02:02:50;15.70;99.90
14529;DHT22;7351;51.194;4.098;2023-04-03T02:05:17;15.70;99.90
14529;DHT22;7351;51.194;4.098;2023-04-03T02:07:45;15.70;99.90
14529;DHT22;7351;51.194;4.098;2023-04-03T02:10:12;15.60;99.90
14529;DHT22;7351;51.194;4.098;2023-04-03T02:12:39;15.60;99.90
14529;DHT22;7351;51.194;4.098;2023-04-03T02:15:07;15.70;99.90
14529;DHT22;7351;51.194;4.098;2023-04-03T02:17:35;15.60;99.90
14529;DHT22;7351;51.194;4.098;2023-04-03T02:20:02;15.60;99.90
14529;DHT22;7351;51.194;4.098;2023-04-03T02:22:29;15.60;99.90
14529;DHT22;7351;51.194;4.098;2023-04-03T02:24:58;15.60;99.90
14529;DHT22;7351;51.194;4.098;2023-04-03T02:27:25;15.60;99.90
14529;DHT22;7351;51.194;4.098;2023-04-03T02:29:52;15.50;99.90
14529;DHT22;7351;51.194;4.098;2023-04-03T02:32:19;15.50;99.90
14529;DHT22;7351;51.194;4.098;2023-04-03T02:34:45;15.60;99.90
14529;DHT22;7351;51.194;4.098;2023-04-03T02:37:12;15.60;99.90
14529;DHT22;7351;51.194;4.098;2023-04-03T02:39:40;15.60;99.90
14529;DHT22;7351;51.194;4.098;2023-04-03T02:42:08;15.60;99.90
14529;DHT22;7351;51.194;4.098;2023-04-03T02:44:35;15.50;99.90
14529;DHT22;7351;51.194;4.098;2023-04-03T02:47:02;15.50;99.90
14529;DHT22;7351;51.194;4.098;2023-04-03T02:49:29;15.50;99.90
14529;DHT22;7351;51.194;4.098;2023-04-03T02:51:56;15.50;99.90
14529;DHT22;7351;51.194;4.098;2023-04-03T02:54:23;15.50;99.90
14529;DHT22;7351;51.194;4.098;2023-04-03T02:56:53;15.60;99.90
14529;DHT22;7351;51.194;4.098;2023-04-03T02:59:21;15.50;99.90
14529;DHT22;7351;51.194;4.098;2023-04-03T03:01:48;15.50;99.90
14529;DHT22;7351;51.194;4.098;2023-04-03T03:04:15;15.50;99.90
14529;DHT22;7351;51.194;4.098;2023-04-03T03:06:42;15.50;99.90
14529;DHT22;7351;51.194;4.098;2023-04-03T03:09:09;15.50;99.90
14529;DHT22;7351;51.194;4.098;2023-04-03T03:11:38;15.50;99.90
14529;DHT22;7351;51.194;4.098;2023-04-03T03:14:05;15.50;99.90
14529;DHT22;7351;51.194;4.098;2023-04-03T03:16:33;15.50;99.90
14529;DHT22;7351;51.194;4.098;2023-04-03T03:19:00;15.50;99.90
14529;DHT22;7351;51.194;4.098;2023-04-03T03:21:27;15.50;99.90
14529;DHT22;7351;51.194;4.098;2023-04-03T03:23:54;15.50;99.90
14529;DHT22;7351;51.194;4.098;2023-04-03T03:26:22;15.50;99.90
14529;DHT22;7351;51.194;4.098;2023-04-03T03:28:49;15.40;99.90
14529;DHT22;7351;51.194;4.098;2023-04-03T03:31:16;15.40;99.90
14529;DHT22;7351;51.194;4.098;2023-04-03T03:33:44;15.40;99.90
14529;DHT22;7351;51.194;4.098;2023-04-03T03:36:11;15.40;99.90
14529;DHT22;7351;51.194;4.098;2023-04-03T03:38:38;15.40;99.90
14529;DHT22;7351;51.194;4.098;2023-04-03T03:41:05;15.40;99.90
14529;DHT22;7351;51.194;4.098;2023-04-03T03:43:32;15.40;99.90
14529;DHT22;7351;51.194;4.098;2023-04-03T03:45:59;15.40;99.90
14529;DHT22;7351;51.194;4.098;2023-04-03T03:48:26;15.40;99.90
14529;DHT22;7351;51.194;4.098;2023-04-03T03:50:55;15.40;99.90
14529;DHT22;7351;51.194;4.098;2023-04-03T03:53:22;15.40;99.90
14529;DHT22;7351;51.194;4.098;2023-04-03T03:55:49;15.50;99.90
14529;DHT22;7351;51.194;4.098;2023-04-03T03:58:16;15.50;99.90
14529;DHT22;7351;51.194;4.098;2023-04-03T04:00:43;15.60;99.90
14529;DHT22;7351;51.194;4.098;2023-04-03T04:03:10;15.70;99.90
14529;DHT22;7351;51.194;4.098;2023-04-03T04:05:37;15.70;99.90
14529;DHT22;7351;51.194;4.098;2023-04-03T04:08:05;15.80;99.90
14529;DHT22;7351;51.194;4.098;2023-04-03T04:10:32;15.90;99.90
14529;DHT22;7351;51.194;4.098;2023-04-03T04:12:59;15.90;99.90
14529;DHT22;7351;51.194;4.098;2023-04-03T04:15:26;16.00;99.90
14529;DHT22;7351;51.194;4.098;2023-04-03T04:17:53;16.00;99.90
14529;DHT22;7351;51.194;4.098;2023-04-03T04:20:20;16.10;99.90
14529;DHT22;7351;51.194;4.098;2023-04-03T04:22:47;16.10;99.90
14529;DHT22;7351;51.194;4.098;2023-04-03T04:25:16;16.20;99.90
14529;DHT22;7351;51.194;4.098;2023-04-03T04:27:43;16.20;99.90
14529;DHT22;7351;51.194;4.098;2023-04-03T04:30:11;16.30;99.90
14529;DHT22;7351;51.194;4.098;2023-04-03T04:32:38;16.30;99.90
14529;DHT22;7351;51.194;4.098;2023-04-03T04:35:05;16.40;99.90
14529;DHT22;7351;51.194;4.098;2023-04-03T04:37:32;16.40;99.90
14529;DHT22;7351;51.194;4.098;2023-04-03T04:39:59;16.50;99.90
14529;DHT22;7351;51.194;4.098;2023-04-03T04:42:27;16.50;99.90
14529;DHT22;7351;51.194;4.098;2023-04-03T04:44:54;16.60;99.90
14529;DHT22;7351;51.194;4.098;2023-04-03T04:47:21;16.60;99.90
14529;DHT22;7351;51.194;4.098;2023-04-03T04:49:48;16.70;99.90
14529;DHT22;7351;51.194;4.098;2023-04-03T04:52:15;16.70;99.90
14529;DHT22;7351;51.194;4.098;2023-04-03T04:54:44;16.80;99.90
14529;DHT22;7351;51.194;4.098;2023-04-03T04:57:11;16.80;99.90
14529;DHT22;7351;51.194;4.098;2023-04-03T04:59:40;16.80;99.90
14529;DHT22;7351;51.194;4.098;2023-04-03T05:02:07;16.80;99.90
14529;DHT22;7351;51.194;4.098;2023-04-03T05:04:34;16.90;99.90
14529;DHT22;7351;51.194;4.098;2023-04-03T05:07:01;16.90;99.90
14529;DHT22;7351;51.194;4.098;2023-04-03T05:09:28;16.90;99.90
14529;DHT22;7351;51.194;4.098;2023-04-03T05:11:54;17.00;99.90
14529;DHT22;7351;51.194;4.098;2023-04-03T05:14:22;17.00;99.90
14529;DHT22;7351;51.194;4.098;2023-04-03T05:16:50;17.00;99.90
14529;DHT22;7351;51.194;4.098;2023-04-03T05:19:19;17.00;99.90
14529;DHT22;7351;51.194;4.098;2023-04-03T05:21:46;17.00;99.90
14529;DHT22;7351;51.194;4.098;2023-04-03T05:24:14;17.00;99.90
14529;DHT22;7351;51.194;4.098;2023-04-03T05:26:41;17.10;99.90
14529;DHT22;7351;51.194;4.098;2023-04-03T05:29:08;17.10;99.90
14529;DHT22;7351;51.194;4.098;2023-04-03T05:31:35;17.10;99.90
14529;DHT22;7351;51.194;4.098;2023-04-03T05:34:04;17.10;99.90
14529;DHT22;7351;51.194;4.098;2023-04-03T05:36:31;17.20;99.90
14529;DHT22;7351;51.194;4.098;2023-04-03T05:38:58;17.20;99.90
14529;DHT22;7351;51.194;4.098;2023-04-03T05:41:25;17.20;99.90
14529;DHT22;7351;51.194;4.098;2023-04-03T05:43:52;17.20;99.90
14529;DHT22;7351;51.194;4.098;2023-04-03T05:46:20;17.20;99.90
14529;DHT22;7351;51.194;4.098;2023-04-03T05:48:47;17.30;99.90
14529;DHT22;7351;51.194;4.098;2023-04-03T05:51:18;17.30;99.90
14529;DHT22;7351;51.194;4.098;2023-04-03T05:53:47;17.30;99.90
14529;DHT22;7351;51.194;4.098;2023-04-03T05:56:14;17.30;99.90
14529;DHT22;7351;51.194;4.098;2023-04-03T05:58:41;17.30;99.90
14529;DHT22;7351;51.194;4.098;2023-04-03T06:01:08;17.40;99.90
14529;DHT22;7351;51.194;4.098;2023-04-03T06:03:35;17.40;99.90
14529;DHT22;7351;51.194;4.098;2023-04-03T06:06:04;17.40;99.90
14529;DHT22;7351;51.194;4.098;2023-04-03T06:08:32;17.40;99.90
14529;DHT22;7351;51.194;4.098;2023-04-03T06:11:00;17.50;99.90
14529;DHT22;7351;51.194;4.098;2023-04-03T06:13:28;17.50;99.90
14529;DHT22;7351;51.194;4.098;2023-04-03T06:15:55;17.40;99.90
14529;DHT22;7351;51.194;4.098;2023-04-03T06:18:23;17.40;99.90
14529;DHT22;7351;51.194;4.098;2023-04-03T06:20:50;17.30;99.90
14529;DHT22;7351;51.194;4.098;2023-04-03T06:23:17;17.30;99.90
14529;DHT22;7351;51.194;4.098;2023-04-03T06:25:45;17.20;99.90
14529;DHT22;7351;51.194;4.098;2023-04-03T06:28:12;17.20;99.90
14529;DHT22;7351;51.194;4.098;2023-04-03T06:30:39;17.10;99.90
14529;DHT22;7351;51.194;4.098;2023-04-03T06:33:06;17.00;99.90
14529;DHT22;7351;51.194;4.098;2023-04-03T06:35:33;17.00;99.90
14529;DHT22;7351;51.194;4.098;2023-04-03T06:38:01;16.90;99.90
14529;DHT22;7351;51.194;4.098;2023-04-03T06:40:29;16.90;99.90
14529;DHT22;7351;51.194;4.098;2023-04-03T06:42:58;16.80;99.90
14529;DHT22;7351;51.194;4.098;2023-04-03T06:45:25;16.70;99.90
14529;DHT22;7351;51.194;4.098;2023-04-03T06:47:53;16.70;99.90
14529;DHT22;7351;51.194;4.098;2023-04-03T06:50:20;16.70;99.90
14529;DHT22;7351;51.194;4.098;2023-04-03T06:52:47;16.70;99.90
14529;DHT22;7351;51.194;4.098;2023-04-03T06:55:14;16.60;99.90
14529;DHT22;7351;51.194;4.098;2023-04-03T06:57:41;16.60;99.90
14529;DHT22;7351;51.194;4.098;2023-04-03T07:00:11;16.60;99.90
14529;DHT22;7351;51.194;4.098;2023-04-03T07:02:38;16.50;99.90
14529;DHT22;7351;51.194;4.098;2023-04-03T07:05:06;16.40;99.90
14529;DHT22;7351;51.194;4.098;2023-04-03T07:07:34;16.40;99.90
14529;DHT22;7351;51.194;4.098;2023-04-03T07:10:01;16.40;99.90
14529;DHT22;7351;51.194;4.098;2023-04-03T07:12:28;16.40;99.90
14529;DHT22;7351;51.194;4.098;2023-04-03T07:14:55;16.40;99.90
14529;DHT22;7351;51.194;4.098;2023-04-03T07:17:24;16.40;99.90
14529;DHT22;7351;51.194;4.098;2023-04-03T07:19:51;16.40;99.90
14529;DHT22;7351;51.194;4.098;2023-04-03T07:22:18;16.40;99.90
14529;DHT22;7351;51.194;4.098;2023-04-03T07:24:45;16.30;99.90
14529;DHT22;7351;51.194;4.098;2023-04-03T07:27:12;16.30;99.90
14529;DHT22;7351;51.194;4.098;2023-04-03T07:29:39;16.30;99.90
14529;DHT22;7351;51.194;4.098;2023-04-03T07:32:06;16.30;99.90
14529;DHT22;7351;51.194;4.098;2023-04-03T07:34:35;16.20;99.90
14529;DHT22;7351;51.194;4.098;2023-04-03T07:37:02;16.20;99.90
14529;DHT22;7351;51.194;4.098;2023-04-03T07:39:30;16.30;99.90
14529;DHT22;7351;51.194;4.098;2023-04-03T07:41:57;16.30;99.90
14529;DHT22;7351;51.194;4.098;2023-04-03T07:44:24;16.40;99.90
14529;DHT22;7351;51.194;4.098;2023-04-03T07:46:51;16.60;99.90
14529;DHT22;7351;51.194;4.098;2023-04-03T07:49:18;16.80;99.90
14529;DHT22;7351;51.194;4.098;2023-04-03T07:51:47;16.90;99.90
14529;DHT22;7351;51.194;4.098;2023-04-03T07:54:14;17.00;99.90
14529;DHT22;7351;51.194;4.098;2023-04-03T07:56:41;17.10;99.90
14529;DHT22;7351;51.194;4.098;2023-04-03T07:59:09;17.30;99.90
14529;DHT22;7351;51.194;4.098;2023-04-03T08:01:37;17.20;99.90
14529;DHT22;7351;51.194;4.098;2023-04-03T08:04:04;17.30;99.90
14529;DHT22;7351;51.194;4.098;2023-04-03T08:06:32;17.30;99.90
14529;DHT22;7351;51.194;4.098;2023-04-03T08:09:04;17.50;99.90
14529;DHT22;7351;51.194;4.098;2023-04-03T08:11:31;17.60;99.90
14529;DHT22;7351;51.194;4.098;2023-04-03T08:13:58;17.60;99.90
14529;DHT22;7351;51.194;4.098;2023-04-03T08:16:25;17.70;99.90
14529;DHT22;7351;51.194;4.098;2023-04-03T08:18:53;17.80;99.90
14529;DHT22;7351;51.194;4.098;2023-04-03T08:21:21;17.80;99.90
14529;DHT22;7351;51.194;4.098;2023-04-03T08:23:49;17.80;99.90
14529;DHT22;7351;51.194;4.098;2023-04-03T08:26:19;17.80;99.90
14529;DHT22;7351;51.194;4.098;2023-04-03T08:28:47;17.90;99.90
14529;DHT22;7351;51.194;4.098;2023-04-03T08:31:16;17.90;99.90
14529;DHT22;7351;51.194;4.098;2023-04-03T08:33:44;17.90;99.90
14529;DHT22;7351;51.194;4.098;2023-04-03T08:36:18;18.00;99.90
14529;DHT22;7351;51.194;4.098;2023-04-03T08:38:46;17.80;99.90
14529;DHT22;7351;51.194;4.098;2023-04-03T08:41:19;17.70;99.90
14529;DHT22;7351;51.194;4.098;2023-04-03T08:44:04;17.60;99.90
14529;DHT22;7351;51.194;4.098;2023-04-03T08:46:43;17.50;99.90
14529;DHT22;7351;51.194;4.098;2023-04-03T08:49:19;17.50;99.90
14529;DHT22;7351;51.194;4.098;2023-04-03T08:51:49;17.40;99.90
14529;DHT22;7351;51.194;4.098;2023-04-03T08:54:24;17.40;99.90
14529;DHT22;7351;51.194;4.098;2023-04-03T08:56:55;17.40;99.90
14529;DHT22;7351;51.194;4.098;2023-04-03T08:59:27;17.40;99.90
14529;DHT22;7351;51.194;4.098;2023-04-03T09:01:58;17.30;99.90
14529;DHT22;7351;51.194;4.098;2023-04-03T09:04:28;17.30;99.90
14529;DHT22;7351;51.194;4.098;2023-04-03T09:07:03;17.40;99.90
14529;DHT22;7351;51.194;4.098;2023-04-03T09:09:35;17.40;99.90
14529;DHT22;7351;51.194;4.098;2023-04-03T09:12:13;17.60;99.90
14529;DHT22;7351;51.194;4.098;2023-04-03T09:14:49;17.70;99.90
14529;DHT22;7351;51.194;4.098;2023-04-03T09:17:27;17.80;99.90
14529;DHT22;7351;51.194;4.098;2023-04-03T09:20:03;17.80;99.90
14529;DHT22;7351;51.194;4.098;2023-04-03T09:22:39;17.80;99.90
14529;DHT22;7351;51.194;4.098;2023-04-03T09:25:12;17.80;99.90
14529;DHT22;7351;51.194;4.098;2023-04-03T09:27:41;17.90;99.90
14529;DHT22;7351;51.194;4.098;2023-04-03T09:30:13;17.90;99.90
14529;DHT22;7351;51.194;4.098;2023-04-03T09:32:41;17.90;99.90
14529;DHT22;7351;51.194;4.098;2023-04-03T09:35:19;17.90;99.90
14529;DHT22;7351;51.194;4.098;2023-04-03T09:37:48;18.00;99.90
14529;DHT22;7351;51.194;4.098;2023-04-03T09:40:35;18.00;99.90
14529;DHT22;7351;51.194;4.098;2023-04-03T09:43:21;18.00;99.90
14529;DHT22;7351;51.194;4.098;2023-04-03T09:45:50;18.00;99.90
14529;DHT22;7351;51.194;4.098;2023-04-03T09:48:19;18.00;99.90
14529;DHT22;7351;51.194;4.098;2023-04-03T09:50:56;18.00;99.90
14529;DHT22;7351;51.194;4.098;2023-04-03T09:53:31;18.10;99.90
14529;DHT22;7351;51.194;4.098;2023-04-03T09:55:59;18.10;99.90
14529;DHT22;7351;51.194;4.098;2023-04-03T09:58:29;18.10;99.90
14529;DHT22;7351;51.194;4.098;2023-04-03T10:01:00;18.10;99.90
14529;DHT22;7351;51.194;4.098;2023-04-03T10:03:30;18.20;99.90
14529;DHT22;7351;51.194;4.098;2023-04-03T10:05:58;18.10;99.90
14529;DHT22;7351;51.194;4.098;2023-04-03T10:08:28;18.30;99.90
14529;DHT22;7351;51.194;4.098;2023-04-03T10:11:12;18.50;99.90
14529;DHT22;7351;51.194;4.098;2023-04-03T10:13:55;18.70;99.90
14529;DHT22;7351;51.194;4.098;2023-04-03T10:16:27;18.90;99.90
14529;DHT22;7351;51.194;4.098;2023-04-03T10:19:05;19.00;99.90
14529;DHT22;7351;51.194;4.098;2023-04-03T10:21:43;19.00;99.90
14529;DHT22;7351;51.194;4.098;2023-04-03T10:24:15;19.10;99.90
14529;DHT22;7351;51.194;4.098;2023-04-03T10:26:53;19.20;99.90
14529;DHT22;7351;51.194;4.098;2023-04-03T10:29:36;19.30;99.90
14529;DHT22;7351;51.194;4.098;2023-04-03T10:32:16;19.30;99.90
14529;DHT22;7351;51.194;4.098;2023-04-03T10:34:46;19.40;99.90
14529;DHT22;7351;51.194;4.098;2023-04-03T10:37:20;19.40;99.90
14529;DHT22;7351;51.194;4.098;2023-04-03T10:39:53;19.50;99.90
14529;DHT22;7351;51.194;4.098;2023-04-03T10:42:26;19.60;99.90
14529;DHT22;7351;51.194;4.098;2023-04-03T10:45:08;19.60;99.90
14529;DHT22;7351;51.194;4.098;2023-04-03T10:47:47;19.70;99.90
14529;DHT22;7351;51.194;4.098;2023-04-03T10:50:31;19.70;99.90
14529;DHT22;7351;51.194;4.098;2023-04-03T10:53:06;19.80;99.90
14529;DHT22;7351;51.194;4.098;2023-04-03T10:55:38;19.80;99.90
14529;DHT22;7351;51.194;4.098;2023-04-03T10:58:18;19.80;99.90
14529;DHT22;7351;51.194;4.098;2023-04-03T11:00:50;19.90;99.90
14529;DHT22;7351;51.194;4.098;2023-04-03T11:03:27;19.90;99.90
14529;DHT22;7351;51.194;4.098;2023-04-03T11:05:59;20.00;99.90
14529;DHT22;7351;51.194;4.098;2023-04-03T11:08:30;20.00;99.90
14529;DHT22;7351;51.194;4.098;2023-04-03T11:11:01;20.10;99.90
14529;DHT22;7351;51.194;4.098;2023-04-03T11:13:34;20.10;99.90
14529;DHT22;7351;51.194;4.098;2023-04-03T11:16:04;20.10;99.90
14529;DHT22;7351;51.194;4.098;2023-04-03T11:18:37;20.10;99.90
14529;DHT22;7351;51.194;4.098;2023-04-03T11:21:09;20.10;99.90
14529;DHT22;7351;51.194;4.098;2023-04-03T11:23:39;20.00;99.90
14529;DHT22;7351;51.194;4.098;2023-04-03T11:26:10;20.00;99.90
14529;DHT22;7351;51.194;4.098;2023-04-03T11:28:37;20.10;99.90
14529;DHT22;7351;51.194;4.098;2023-04-03T11:31:15;20.20;99.90
14529;DHT22;7351;51.194;4.098;2023-04-03T11:33:51;20.30;99.90
14529;DHT22;7351;51.194;4.098;2023-04-03T11:36:24;20.20;99.90
14529;DHT22;7351;51.194;4.098;2023-04-03T11:38:53;20.10;99.90
14529;DHT22;7351;51.194;4.098;2023-04-03T11:41:28;20.10;99.90
14529;DHT22;7351;51.194;4.098;2023-04-03T11:43:59;20.20;99.90
14529;DHT22;7351;51.194;4.098;2023-04-03T11:46:52;20.10;99.90
14529;DHT22;7351;51.194;4.098;2023-04-03T11:49:58;20.30;99.90
14529;DHT22;7351;51.194;4.098;2023-04-03T11:52:55;20.40;99.90
14529;DHT22;7351;51.194;4.098;2023-04-03T11:55:42;20.50;99.90
14529;DHT22;7351;51.194;4.098;2023-04-03T11:58:15;20.50;99.90
14529;DHT22;7351;51.194;4.098;2023-04-03T12:00:56;20.50;99.90
14529;DHT22;7351;51.194;4.098;2023-04-03T12:07:00;20.70;99.90
14529;DHT22;7351;51.194;4.098;2023-04-03T12:12:36;20.80;99.90
14529;DHT22;7351;51.194;4.098;2023-04-03T12:15:38;20.90;99.90
14529;DHT22;7351;51.194;4.098;2023-04-03T12:21:19;20.80;99.90
14529;DHT22;7351;51.194;4.098;2023-04-03T12:24:00;20.80;99.90
14529;DHT22;7351;51.194;4.098;2023-04-03T12:26:31;20.90;99.90
14529;DHT22;7351;51.194;4.098;2023-04-03T12:29:01;20.90;99.90
14529;DHT22;7351;51.194;4.098;2023-04-03T12:31:40;21.00;99.90
14529;DHT22;7351;51.194;4.098;2023-04-03T12:34:29;21.00;99.90
14529;DHT22;7351;51.194;4.098;2023-04-03T12:37:12;21.10;99.90
14529;DHT22;7351;51.194;4.098;2023-04-03T12:40:03;21.10;99.90
14529;DHT22;7351;51.194;4.098;2023-04-03T12:42:52;21.20;99.90
14529;DHT22;7351;51.194;4.098;2023-04-03T12:45:23;21.30;99.90
14529;DHT22;7351;51.194;4.098;2023-04-03T12:47:54;21.30;99.90
14529;DHT22;7351;51.194;4.098;2023-04-03T12:50:23;21.30;99.90
14529;DHT22;7351;51.194;4.098;2023-04-03T12:52:56;21.40;99.90
14529;DHT22;7351;51.194;4.098;2023-04-03T12:55:25;21.50;99.90
14529;DHT22;7351;51.194;4.098;2023-04-03T12:57:52;21.50;99.90
14529;DHT22;7351;51.194;4.098;2023-04-03T13:00:31;21.50;99.90
14529;DHT22;7351;51.194;4.098;2023-04-03T13:03:00;21.60;99.90
14529;DHT22;7351;51.194;4.098;2023-04-03T13:05:28;21.40;99.90
14529;DHT22;7351;51.194;4.098;2023-04-03T13:07:59;21.30;99.90
14529;DHT22;7351;51.194;4.098;2023-04-03T13:10:30;21.30;99.90
14529;DHT22;7351;51.194;4.098;2023-04-03T13:13:06;21.30;99.90
14529;DHT22;7351;51.194;4.098;2023-04-03T13:15:41;21.30;99.90
14529;DHT22;7351;51.194;4.098;2023-04-03T13:18:22;21.50;99.90
14529;DHT22;7351;51.194;4.098;2023-04-03T13:20:49;21.60;99.90
14529;DHT22;7351;51.194;4.098;2023-04-03T13:23:17;21.60;99.90
14529;DHT22;7351;51.194;4.098;2023-04-03T13:25:48;21.70;99.90
14529;DHT22;7351;51.194;4.098;2023-04-03T13:28:19;21.70;99.90
14529;DHT22;7351;51.194;4.098;2023-04-03T13:31:01;21.80;99.90
14529;DHT22;7351;51.194;4.098;2023-04-03T13:33:32;21.80;99.90
14529;DHT22;7351;51.194;4.098;2023-04-03T13:36:05;21.80;99.90
14529;DHT22;7351;51.194;4.098;2023-04-03T13:38:33;21.90;99.90
14529;DHT22;7351;51.194;4.098;2023-04-03T13:41:20;22.00;99.90
14529;DHT22;7351;51.194;4.098;2023-04-03T13:43:48;22.00;99.90
14529;DHT22;7351;51.194;4.098;2023-04-03T13:46:27;22.00;99.90
14529;DHT22;7351;51.194;4.098;2023-04-03T13:48:56;22.10;99.90
14529;DHT22;7351;51.194;4.098;2023-04-03T13:51:24;22.10;99.90
14529;DHT22;7351;51.194;4.098;2023-04-03T13:53:56;22.20;99.90
14529;DHT22;7351;51.194;4.098;2023-04-03T13:56:31;22.30;99.90
14529;DHT22;7351;51.194;4.098;2023-04-03T13:59:05;22.20;99.90
14529;DHT22;7351;51.194;4.098;2023-04-03T14:01:48;22.30;99.90
14529;DHT22;7351;51.194;4.098;2023-04-03T14:04:18;22.30;99.90
14529;DHT22;7351;51.194;4.098;2023-04-03T14:06:49;22.40;99.90
14529;DHT22;7351;51.194;4.098;2023-04-03T14:09:18;22.40;99.90
14529;DHT22;7351;51.194;4.098;2023-04-03T14:11:48;22.40;99.90
14529;DHT22;7351;51.194;4.098;2023-04-03T14:14:18;22.40;99.90
14529;DHT22;7351;51.194;4.098;2023-04-03T14:16:50;22.30;99.90
14529;DHT22;7351;51.194;4.098;2023-04-03T14:19:21;22.20;99.90
14529;DHT22;7351;51.194;4.098;2023-04-03T14:21:49;22.30;99.90
14529;DHT22;7351;51.194;4.098;2023-04-03T14:24:18;22.40;99.90
14529;DHT22;7351;51.194;4.098;2023-04-03T14:26:48;22.40;99.90
14529;DHT22;7351;51.194;4.098;2023-04-03T14:29:16;22.50;99.90
14529;DHT22;7351;51.194;4.098;2023-04-03T14:31:44;22.50;99.90
14529;DHT22;7351;51.194;4.098;2023-04-03T14:34:12;22.50;99.90
14529;DHT22;7351;51.194;4.098;2023-04-03T14:36:39;22.60;99.90
14529;DHT22;7351;51.194;4.098;2023-04-03T14:39:10;22.60;99.90
14529;DHT22;7351;51.194;4.098;2023-04-03T14:41:37;22.70;99.90
14529;DHT22;7351;51.194;4.098;2023-04-03T14:44:06;22.50;99.90
14529;DHT22;7351;51.194;4.098;2023-04-03T14:46:36;22.30;99.90
14529;DHT22;7351;51.194;4.098;2023-04-03T14:49:05;22.20;99.90
14529;DHT22;7351;51.194;4.098;2023-04-03T14:51:38;22.10;99.90
14529;DHT22;7351;51.194;4.098;2023-04-03T14:54:12;22.00;99.90
14529;DHT22;7351;51.194;4.098;2023-04-03T14:56:40;21.80;99.90
14529;DHT22;7351;51.194;4.098;2023-04-03T14:59:11;21.70;99.90
14529;DHT22;7351;51.194;4.098;2023-04-03T15:01:38;21.70;99.90
14529;DHT22;7351;51.194;4.098;2023-04-03T15:04:10;21.70;99.90
14529;DHT22;7351;51.194;4.098;2023-04-03T15:06:39;21.80;99.90
14529;DHT22;7351;51.194;4.098;2023-04-03T15:09:11;21.70;99.90
14529;DHT22;7351;51.194;4.098;2023-04-03T15:11:43;21.60;99.90
14529;DHT22;7351;51.194;4.098;2023-04-03T15:14:12;21.50;99.90
14529;DHT22;7351;51.194;4.098;2023-04-03T15:16:39;21.50;99.90
14529;DHT22;7351;51.194;4.098;2023-04-03T15:19:06;21.40;99.90
14529;DHT22;7351;51.194;4.098;2023-04-03T15:21:33;21.40;99.90
14529;DHT22;7351;51.194;4.098;2023-04-03T15:24:00;21.40;99.90
14529;DHT22;7351;51.194;4.098;2023-04-03T15:26:28;21.40;99.90
14529;DHT22;7351;51.194;4.098;2023-04-03T15:28:55;21.30;99.90
14529;DHT22;7351;51.194;4.098;2023-04-03T15:31:23;21.30;99.90
14529;DHT22;7351;51.194;4.098;2023-04-03T15:33:50;21.30;99.90
14529;DHT22;7351;51.194;4.098;2023-04-03T15:36:18;21.30;99.90
14529;DHT22;7351;51.194;4.098;2023-04-03T15:38:45;21.20;99.90
14529;DHT22;7351;51.194;4.098;2023-04-03T15:41:12;21.20;99.90
14529;DHT22;7351;51.194;4.098;2023-04-03T15:43:40;21.20;99.90
14529;DHT22;7351;51.194;4.098;2023-04-03T15:46:07;21.20;99.90
14529;DHT22;7351;51.194;4.098;2023-04-03T15:48:36;21.20;99.90
14529;DHT22;7351;51.194;4.098;2023-04-03T15:51:03;21.40;99.90
14529;DHT22;7351;51.194;4.098;2023-04-03T15:53:31;21.30;99.90
14529;DHT22;7351;51.194;4.098;2023-04-03T15:55:58;21.20;99.90
14529;DHT22;7351;51.194;4.098;2023-04-03T15:58:25;21.10;99.90
14529;DHT22;7351;51.194;4.098;2023-04-03T16:00:52;21.00;99.90
14529;DHT22;7351;51.194;4.098;2023-04-03T16:03:21;21.00;99.90
14529;DHT22;7351;51.194;4.098;2023-04-03T16:05:51;21.10;99.90
14529;DHT22;7351;51.194;4.098;2023-04-03T16:08:18;21.10;99.90
14529;DHT22;7351;51.194;4.098;2023-04-03T16:10:45;21.00;99.90
14529;DHT22;7351;51.194;4.098;2023-04-03T16:13:13;21.00;99.90